Terminal Aerodrome Forecast
Issued by NWS Brownsville, TX

Home | Current Version | Previous Version | Text Only | Print | Product List | Glossary On
Versions: 1 2 3 4 5 6 7 8 9 10 11 12 13 14 15 16 17 18 19 20
266
FTUS44 KBRO 021945 AAA
TAFMFE
TAF AMD
KMFE 021945Z 0220/0318 33016G26KT P6SM OVC035
     FM030000 34015KT P6SM OVC050
     FM030600 33007KT P6SM OVC100=

USA.gov is the U.S. government's official web portal to all federal, state and local government web resources and services.